Weather at King Khaled International Airport

Public forecast

Using degrees Celsius for public forecast. Weather courtesy of forecast.io.

Current aviation weather report (METAR) for King Khaled International Airport

2024/04/23 00:00 (retrieved 1 hour ago)

OERK 230000Z 32004KT CAVOK 23/05 Q1015 NOSIG

Closest aviation forecast (TAF) to King Khaled International Airport

Forecast is more than 6 hours old.

Closest forecast is Ali Al Salem Air Base, 266.9 nm (494.4 km) N.

2024/04/22 16:52 (retrieved 8 hours ago)

TAF OKAS 221600Z 2216/2322 33012G18KT 9999 SKC QNH2983INS BECMG 2302/2303 34012G20KT 9999 SKC QNH2987INS BECMG 2306/2307 30020G30KT 8000 BLDU SKC QNH2987INS BECMG 2316/2317 33015G25KT 9000 BLDU SKC QNH2977INS TX35/2312Z TN21/2302Z